createdAt,value
2019-05-23T00:01:52.151Z,100453.29
2019-05-23T00:05:00.022Z,100453.20
2019-05-23T00:07:45.914Z,100442.73
2019-05-23T00:10:37.715Z,100436.56
2019-05-23T00:13:53.761Z,100440.08
2019-05-23T00:16:23.093Z,100438.38
2019-05-23T00:18:51.337Z,100440.83
2019-05-23T00:21:20.331Z,100439.16
2019-05-23T00:23:48.127Z,100438.23
2019-05-23T00:26:15.981Z,100434.71
2019-05-23T00:28:44.223Z,100436.91
2019-05-23T00:31:23.427Z,100436.36
2019-05-23T00:33:51.526Z,100442.73
2019-05-23T00:36:20.608Z,100444.90
2019-05-23T00:38:49.184Z,100440.06
2019-05-23T00:41:19.160Z,100440.96
2019-05-23T00:43:46.405Z,100435.86
2019-05-23T00:46:14.242Z,100441.05
2019-05-23T00:48:42.139Z,100434.59
2019-05-23T00:51:11.285Z,100430.36
2019-05-23T00:53:38.653Z,100430.11
2019-05-23T00:56:08.543Z,100426.03
2019-05-23T00:58:36.579Z,100423.77
2019-05-23T01:01:03.972Z,100422.70
2019-05-23T01:03:31.559Z,100426.28
2019-05-23T01:05:59.580Z,100425.34
2019-05-23T01:08:29.859Z,100429.81
2019-05-23T01:10:57.147Z,100427.59
2019-05-23T01:13:24.933Z,100426.39
2019-05-23T01:15:54.423Z,100433.86
2019-05-23T01:18:22.217Z,100427.88
2019-05-23T01:21:07.758Z,100429.33
2019-05-23T01:23:38.106Z,100430.53
2019-05-23T01:26:05.683Z,100423.25
2019-05-23T01:28:33.429Z,100423.55
2019-05-23T01:31:05.533Z,100426.60
2019-05-23T01:33:33.224Z,100422.06
2019-05-23T01:36:01.249Z,100425.27
2019-05-23T01:38:29.595Z,100429.11
2019-05-23T01:40:57.458Z,100424.88
2019-05-23T01:43:25.241Z,100421.39
2019-05-23T01:45:52.637Z,100399.95
2019-05-23T01:48:20.065Z,100425.83
2019-05-23T01:50:48.260Z,100429.59
2019-05-23T01:53:15.715Z,100429.61
2019-05-23T01:55:43.823Z,100431.57
2019-05-23T01:58:11.106Z,100429.09
2019-05-23T02:00:39.392Z,100436.09
2019-05-23T02:03:06.742Z,100431.57
2019-05-23T02:05:34.308Z,100434.22
2019-05-23T02:08:02.327Z,100433.25
2019-05-23T02:10:29.910Z,100434.93
2019-05-23T02:12:57.932Z,100440.70
2019-05-23T02:15:26.425Z,100442.98
2019-05-23T02:17:54.044Z,100442.43
2019-05-23T02:20:21.876Z,100441.74
2019-05-23T02:22:49.711Z,100444.92
2019-05-23T02:25:18.823Z,100439.54
2019-05-23T02:27:46.434Z,100436.59
2019-05-23T02:30:33.037Z,100443.05
2019-05-23T02:32:45.590Z,100433.86
2019-05-23T02:35:12.832Z,100437.63
2019-05-23T02:38:03.906Z,100438.05
2019-05-23T02:40:39.904Z,100428.55
2019-05-23T02:43:08.375Z,100424.19
2019-05-23T02:45:42.114Z,100426.00
2019-05-23T02:48:11.193Z,100419.75
2019-05-23T02:50:48.570Z,100426.72
2019-05-23T02:53:16.453Z,100422.81
2019-05-23T02:55:45.631Z,100421.16
2019-05-23T02:58:28.100Z,100424.56
2019-05-23T03:01:23.367Z,100427.39
2019-05-23T03:03:51.431Z,100422.14
2019-05-23T03:06:18.790Z,100420.19
2019-05-23T03:08:47.988Z,100421.36
2019-05-23T03:11:51.923Z,100420.58
2019-05-23T03:14:19.565Z,100420.67
2019-05-23T03:16:51.435Z,100420.41
2019-05-23T03:19:31.801Z,100414.34
2019-05-23T03:22:27.461Z,100421.52
2019-05-23T03:24:57.003Z,100411.80
2019-05-23T03:27:25.789Z,100415.75
2019-05-23T03:29:53.843Z,100415.30
2019-05-23T03:32:37.318Z,100410.29
2019-05-23T03:35:08.707Z,100415.36
2019-05-23T03:37:35.933Z,100416.30
2019-05-23T03:40:04.230Z,100405.67
2019-05-23T03:42:31.508Z,100410.05
2019-05-23T03:44:59.335Z,100409.48
2019-05-23T03:47:28.501Z,100410.56
2019-05-23T03:49:57.895Z,100419.53
2019-05-23T03:52:26.712Z,100416.05
2019-05-23T03:54:55.942Z,100419.59
2019-05-23T03:57:25.933Z,100420.85
2019-05-23T03:59:53.455Z,100421.19
2019-05-23T04:02:25.377Z,100420.83
2019-05-23T04:04:53.214Z,100414.58
2019-05-23T04:07:20.950Z,100418.14
2019-05-23T04:09:48.325Z,100410.56
2019-05-23T04:12:15.687Z,100411.42
2019-05-23T04:14:45.134Z,100410.09
2019-05-23T04:17:12.600Z,100407.94
2019-05-23T04:19:40.159Z,100406.63
2019-05-23T04:22:07.619Z,100407.03
2019-05-23T04:24:35.006Z,100413.08
2019-05-23T04:27:02.589Z,100403.48
2019-05-23T04:29:29.863Z,100405.72
2019-05-23T04:32:07.932Z,100405.37
2019-05-23T04:34:26.705Z,100402.41
2019-05-23T04:36:54.923Z,100398.80
2019-05-23T04:39:22.311Z,100405.03
2019-05-23T04:41:49.753Z,100402.14
2019-05-23T04:44:17.808Z,100400.80
2019-05-23T04:46:45.080Z,100405.50
2019-05-23T04:49:12.523Z,100403.51
2019-05-23T04:51:40.926Z,100405.31
2019-05-23T04:54:08.327Z,100406.56
2019-05-23T04:56:35.991Z,100406.06
2019-05-23T04:59:05.585Z,100407.80
2019-05-23T05:01:38.811Z,100409.16
2019-05-23T05:04:08.966Z,100408.63
2019-05-23T05:06:40.854Z,100409.33
2019-05-23T05:09:12.943Z,100409.85
2019-05-23T05:11:44.366Z,100403.00
2019-05-23T05:14:11.783Z,100402.64
2019-05-23T05:16:39.068Z,100404.16
2019-05-23T05:19:06.444Z,100400.84
2019-05-23T05:21:33.780Z,100404.75
2019-05-23T05:24:01.025Z,100405.40
2019-05-23T05:26:29.578Z,100405.80
2019-05-23T05:28:56.842Z,100412.88
2019-05-23T05:31:24.076Z,100414.48
2019-05-23T05:33:51.494Z,100408.31
2019-05-23T05:36:18.899Z,100406.11
2019-05-23T05:38:46.139Z,100407.30
2019-05-23T05:41:14.030Z,100407.69
2019-05-23T05:43:43.216Z,100408.91
2019-05-23T05:46:12.456Z,100411.73
2019-05-23T05:48:41.784Z,100404.38
2019-05-23T05:51:09.935Z,100415.36
2019-05-23T05:53:37.644Z,100410.57
2019-05-23T05:56:05.229Z,100409.25
2019-05-23T05:58:32.878Z,100416.97
2019-05-23T06:01:02.150Z,100421.17
2019-05-23T06:03:29.950Z,100412.20
2019-05-23T06:06:15.411Z,100423.39
2019-05-23T06:08:43.957Z,100427.16
2019-05-23T06:11:12.317Z,100428.27
2019-05-23T06:13:39.699Z,100425.75
2019-05-23T06:16:07.095Z,100430.88
2019-05-23T06:18:34.833Z,100430.55
2019-05-23T06:21:03.364Z,100434.32
2019-05-23T06:23:31.295Z,100435.12
2019-05-23T06:25:58.543Z,100430.94
2019-05-23T06:28:25.943Z,100430.81
2019-05-23T06:30:53.805Z,100431.17
2019-05-23T06:33:24.145Z,100427.80
2019-05-23T06:35:51.559Z,100424.19
2019-05-23T06:38:19.581Z,100430.25
2019-05-23T06:40:47.301Z,100428.10
2019-05-23T06:43:14.954Z,100423.69
2019-05-23T06:45:42.743Z,100426.02
2019-05-23T06:48:12.765Z,100421.53
2019-05-23T06:50:40.013Z,100425.75
2019-05-23T06:53:07.385Z,100421.61
2019-05-23T06:55:34.722Z,100420.58
2019-05-23T06:58:02.415Z,100416.27
2019-05-23T07:00:30.226Z,100421.06
2019-05-23T07:02:57.543Z,100427.72
2019-05-23T07:05:29.462Z,100421.22
2019-05-23T07:07:57.841Z,100422.48
2019-05-23T07:10:27.504Z,100427.49
2019-05-23T07:12:56.199Z,100430.00
2019-05-23T07:15:25.678Z,100417.43
2019-05-23T07:17:55.317Z,100424.08
2019-05-23T07:20:22.842Z,100424.92
2019-05-23T07:22:50.183Z,100424.38
2019-05-23T07:25:17.511Z,100425.43
2019-05-23T07:27:45.009Z,100428.29
2019-05-23T07:30:17.095Z,100427.19
2019-05-23T07:32:44.372Z,100425.36
2019-05-23T07:35:11.754Z,100425.61
2019-05-23T07:37:39.109Z,100420.17
2019-05-23T07:40:06.680Z,100424.45
2019-05-23T07:42:34.354Z,100416.40
2019-05-23T07:45:03.568Z,100418.77
2019-05-23T07:47:31.272Z,100416.80
2019-05-23T07:49:58.527Z,100416.46
2019-05-23T07:52:26.092Z,100409.66
2019-05-23T07:54:58.688Z,100410.55
2019-05-23T07:57:26.567Z,100414.01
2019-05-23T07:59:54.438Z,100409.06
2019-05-23T08:02:30.129Z,100409.45
2019-05-23T08:04:57.369Z,100410.43
2019-05-23T08:07:25.890Z,100412.84
2019-05-23T08:09:53.146Z,100398.50
2019-05-23T08:12:20.682Z,100406.27
2019-05-23T08:14:47.980Z,100394.34
2019-05-23T08:17:16.278Z,100398.72
2019-05-23T08:19:49.747Z,100396.37
2019-05-23T08:22:12.724Z,100398.12
2019-05-23T08:24:40.783Z,100405.85
2019-05-23T08:27:08.289Z,100396.28
2019-05-23T08:29:35.991Z,100401.84
2019-05-23T08:32:03.500Z,100403.20
2019-05-23T08:34:41.625Z,100402.38
2019-05-23T08:37:00.264Z,100395.45
2019-05-23T08:39:28.516Z,100400.88
2019-05-23T08:41:56.547Z,100394.65
2019-05-23T08:44:24.039Z,100389.27
2019-05-23T08:46:51.405Z,100389.37
2019-05-23T08:49:18.742Z,100394.42
2019-05-23T08:51:46.124Z,100395.75
2019-05-23T08:54:13.479Z,100400.00
2019-05-23T08:56:41.311Z,100387.61
2019-05-23T08:59:10.168Z,100393.36
2019-05-23T09:01:37.825Z,100388.09
2019-05-23T09:04:05.660Z,100391.75
2019-05-23T09:06:34.791Z,100383.18
2019-05-23T09:09:04.049Z,100381.53
2019-05-23T09:11:32.313Z,100376.60
2019-05-23T09:14:00.274Z,100384.25
2019-05-23T09:16:27.642Z,100381.86
2019-05-23T09:18:55.017Z,100388.63
2019-05-23T09:21:22.506Z,100379.28
2019-05-23T09:23:49.803Z,100374.55
2019-05-23T09:26:17.216Z,100366.52
2019-05-23T09:28:45.001Z,100368.41
2019-05-23T09:31:12.456Z,100364.52
2019-05-23T09:33:48.754Z,100369.51
2019-05-23T09:36:16.179Z,100369.95
2019-05-23T09:38:47.240Z,100357.30
2019-05-23T09:41:14.833Z,100358.87
2019-05-23T09:43:42.101Z,100369.56
2019-05-23T09:46:09.592Z,100357.35
2019-05-23T09:48:36.874Z,100366.27
2019-05-23T09:51:05.280Z,100366.28
2019-05-23T09:53:32.653Z,100350.73
2019-05-23T09:56:00.052Z,100353.62
2019-05-23T09:58:27.523Z,100353.39
2019-05-23T10:00:57.287Z,100352.83
2019-05-23T10:03:24.779Z,100355.65
2019-05-23T10:05:52.470Z,100363.34
2019-05-23T10:08:19.746Z,100361.94
2019-05-23T10:10:47.299Z,100351.77
2019-05-23T10:13:16.331Z,100345.69
2019-05-23T10:15:51.716Z,100345.20
2019-05-23T10:18:22.613Z,100345.07
2019-05-23T10:20:51.926Z,100341.47
2019-05-23T10:23:21.151Z,100347.37
2019-05-23T10:25:50.485Z,100342.64
2019-05-23T10:28:20.655Z,100342.50
2019-05-23T10:30:51.629Z,100340.57
2019-05-23T10:33:20.713Z,100329.69
2019-05-23T10:35:59.950Z,100333.80
2019-05-23T10:38:20.905Z,100326.94
2019-05-23T10:40:49.828Z,100323.94
2019-05-23T10:43:20.365Z,100330.65
2019-05-23T10:45:49.446Z,100329.58
2019-05-23T10:48:18.769Z,100320.91
2019-05-23T10:50:48.055Z,100311.78
2019-05-23T10:53:17.606Z,100311.30
2019-05-23T10:55:48.234Z,100314.99
2019-05-23T10:58:17.684Z,100314.05
2019-05-23T11:00:46.794Z,100312.65
2019-05-23T11:03:15.825Z,100317.14
2019-05-23T11:05:45.887Z,100300.17
2019-05-23T11:08:16.749Z,100313.86
2019-05-23T11:10:46.397Z,100313.86
2019-05-23T11:13:15.116Z,100298.56
2019-05-23T11:15:44.363Z,100304.91
2019-05-23T11:18:13.930Z,100296.72
2019-05-23T11:20:42.761Z,100301.45
2019-05-23T11:23:14.240Z,100287.58
2019-05-23T11:25:43.367Z,100290.67
2019-05-23T11:28:12.331Z,100289.88
2019-05-23T11:30:48.959Z,100291.34
2019-05-23T11:33:19.257Z,100272.97
2019-05-23T11:35:48.410Z,100279.42
2019-05-23T11:38:16.144Z,100274.48
2019-05-23T11:40:44.166Z,100281.97
2019-05-23T11:43:11.541Z,100277.92
2019-05-23T11:45:46.811Z,100272.55
2019-05-23T11:48:20.183Z,100274.05
2019-05-23T11:50:52.009Z,100266.38
2019-05-23T11:53:21.439Z,100267.69
2019-05-23T11:55:54.026Z,100262.94
2019-05-23T11:58:18.663Z,100266.40
2019-05-23T12:01:20.482Z,100260.34
2019-05-23T12:03:42.262Z,100260.81
2019-05-23T12:06:09.536Z,100259.27
2019-05-23T12:08:36.806Z,100256.16
2019-05-23T12:11:04.146Z,100250.84
2019-05-23T12:13:31.531Z,100250.61
2019-05-23T12:15:59.126Z,100245.75
2019-05-23T12:18:26.501Z,100252.23
2019-05-23T12:20:54.824Z,100252.00
2019-05-23T12:23:22.095Z,100252.48
2019-05-23T12:25:49.905Z,100253.05
2019-05-23T12:28:17.622Z,100240.37
2019-05-23T12:30:45.014Z,100242.28
2019-05-23T12:33:12.384Z,100243.44
2019-05-23T12:35:39.646Z,100243.44
2019-05-23T12:38:07.451Z,100239.92
2019-05-23T12:40:34.774Z,100233.27
2019-05-23T12:43:03.180Z,100231.44
2019-05-23T12:45:30.538Z,100235.74
2019-05-23T12:48:02.639Z,100234.89
2019-05-23T12:50:34.213Z,100229.04
2019-05-23T12:53:01.671Z,100226.81
2019-05-23T12:55:28.962Z,100214.80
2019-05-23T12:57:56.191Z,100225.39
2019-05-23T13:00:32.930Z,100226.30
2019-05-23T13:03:00.201Z,100219.20
2019-05-23T13:05:27.693Z,100217.47
2019-05-23T13:07:54.924Z,100223.33
2019-05-23T13:10:24.446Z,100224.95
2019-05-23T13:12:51.438Z,100220.01
2019-05-23T13:15:19.359Z,100218.03
2019-05-23T13:17:46.683Z,100223.36
2019-05-23T13:20:14.051Z,100217.63
2019-05-23T13:22:41.557Z,100215.37
2019-05-23T13:25:09.489Z,100209.40
2019-05-23T13:27:37.356Z,100209.92
2019-05-23T13:30:05.000Z,100215.09
2019-05-23T13:32:32.674Z,100210.79
2019-05-23T13:34:59.999Z,100208.75
2019-05-23T13:37:29.186Z,100199.13
2019-05-23T13:39:56.604Z,100196.75
2019-05-23T13:42:24.000Z,100192.55
2019-05-23T13:44:51.360Z,100191.42
2019-05-23T13:47:18.770Z,100193.84
2019-05-23T13:49:46.027Z,100200.82
2019-05-23T13:52:13.420Z,100194.59
2019-05-23T13:54:40.710Z,100188.16
2019-05-23T13:57:08.978Z,100186.42
2019-05-23T13:59:36.725Z,100188.06
2019-05-23T14:02:05.953Z,100174.62
2019-05-23T14:04:33.652Z,100187.48
2019-05-23T14:07:01.127Z,100183.08
2019-05-23T14:09:28.626Z,100182.38
2019-05-23T14:12:19.973Z,100179.49
2019-05-23T14:14:26.378Z,100180.52
2019-05-23T14:17:16.137Z,100173.17
2019-05-23T14:19:43.747Z,100173.45
2019-05-23T14:22:11.206Z,100177.42
2019-05-23T14:24:38.501Z,100168.65
2019-05-23T14:27:16.144Z,100177.76
2019-05-23T14:29:43.619Z,100171.16
2019-05-23T14:32:30.531Z,100168.92
2019-05-23T14:34:58.001Z,100169.19
2019-05-23T14:37:31.448Z,100167.50
2019-05-23T14:40:05.334Z,100164.12
2019-05-23T14:42:59.368Z,100171.08
2019-05-23T14:45:39.670Z,100169.69
2019-05-23T14:48:29.900Z,100161.84
2019-05-23T14:51:15.521Z,100159.39
2019-05-23T14:53:46.825Z,100158.00
2019-05-23T14:56:14.522Z,100166.20
2019-05-23T14:58:41.889Z,100168.13
2019-05-23T15:01:11.249Z,100165.94
2019-05-23T15:03:39.107Z,100163.39
2019-05-23T15:06:06.330Z,100163.59
2019-05-23T15:08:50.345Z,100164.70
2019-05-23T15:11:03.976Z,100161.05
2019-05-23T15:13:31.242Z,100165.61
2019-05-23T15:15:58.879Z,100168.44
2019-05-23T15:18:26.194Z,100160.62
2019-05-23T15:20:53.519Z,100155.53
2019-05-23T15:23:20.830Z,100155.77
2019-05-23T15:25:48.163Z,100157.53
2019-05-23T15:28:15.465Z,100153.42
2019-05-23T15:30:42.713Z,100150.30
2019-05-23T15:33:10.105Z,100146.28
2019-05-23T15:35:37.545Z,100138.41
2019-05-23T15:38:04.834Z,100136.75
2019-05-23T15:40:32.536Z,100152.73
2019-05-23T15:42:59.922Z,100137.69
2019-05-23T15:45:27.309Z,100138.02
2019-05-23T15:47:54.712Z,100135.08
2019-05-23T15:50:25.000Z,100131.63
2019-05-23T15:53:04.734Z,100131.53
2019-05-23T15:55:43.406Z,100135.13
2019-05-23T15:58:33.220Z,100127.08
2019-05-23T16:01:13.003Z,100130.84
2019-05-23T16:03:42.961Z,100123.22
2019-05-23T16:06:12.814Z,100122.56
2019-05-23T16:08:40.243Z,100122.70
2019-05-23T16:11:07.840Z,100114.97
2019-05-23T16:13:35.441Z,100113.41
2019-05-23T16:16:02.854Z,100110.57
2019-05-23T16:18:30.649Z,100114.63
2019-05-23T16:20:58.098Z,100107.67
2019-05-23T16:23:25.579Z,100108.21
2019-05-23T16:25:53.218Z,100102.67
2019-05-23T16:28:21.281Z,100105.46
2019-05-23T16:30:50.883Z,100108.48
2019-05-23T16:33:18.768Z,100099.73
2019-05-23T16:35:46.376Z,100095.97
2019-05-23T16:38:14.126Z,100102.30
2019-05-23T16:40:41.907Z,100101.05
2019-05-23T16:43:10.005Z,100094.53
2019-05-23T16:45:37.764Z,100101.53
2019-05-23T16:48:06.255Z,100104.81
2019-05-23T16:50:34.203Z,100095.09
2019-05-23T16:53:01.995Z,100095.52
2019-05-23T16:55:36.363Z,100088.71
2019-05-23T16:58:11.895Z,100092.72
2019-05-23T17:00:57.558Z,100098.09
2019-05-23T17:03:36.567Z,100097.41
2019-05-23T17:06:23.387Z,100097.05
2019-05-23T17:09:13.373Z,100086.51
2019-05-23T17:11:46.054Z,100097.30
2019-05-23T17:14:21.624Z,100089.38
2019-05-23T17:16:56.032Z,100095.29
2019-05-23T17:19:36.853Z,100093.13
2019-05-23T17:22:23.887Z,100087.67
2019-05-23T17:25:10.849Z,100088.56
2019-05-23T17:27:57.734Z,100088.02
2019-05-23T17:30:47.534Z,100084.35
2019-05-23T17:33:16.304Z,100090.34
2019-05-23T17:35:43.683Z,100092.13
2019-05-23T17:38:11.027Z,100080.48
2019-05-23T17:40:38.356Z,100084.89
2019-05-23T17:43:05.765Z,100081.44
2019-05-23T17:45:34.176Z,100078.86
2019-05-23T17:48:01.504Z,100080.84
2019-05-23T17:50:29.482Z,100077.63
2019-05-23T17:52:56.887Z,100080.19
2019-05-23T17:55:25.652Z,100076.72
2019-05-23T17:57:56.803Z,100079.70
2019-05-23T18:00:26.609Z,100077.34
2019-05-23T18:02:54.007Z,100078.74
2019-05-23T18:05:21.481Z,100077.55
2019-05-23T18:07:48.978Z,100075.97
2019-05-23T18:10:17.133Z,100069.56
2019-05-23T18:12:44.415Z,100073.81
2019-05-23T18:15:12.921Z,100073.81
2019-05-23T18:17:40.545Z,100070.17
2019-05-23T18:20:08.086Z,100071.58
2019-05-23T18:22:36.213Z,100071.23
2019-05-23T18:25:11.435Z,100070.20
2019-05-23T18:27:41.622Z,100078.88
2019-05-23T18:30:15.386Z,100068.05
2019-05-23T18:32:42.968Z,100072.66
2019-05-23T18:35:11.607Z,100063.02
2019-05-23T18:37:38.957Z,100066.82
2019-05-23T18:40:06.275Z,100070.11
2019-05-23T18:42:34.043Z,100072.35
2019-05-23T18:45:01.632Z,100071.86
2019-05-23T18:47:33.871Z,100067.91
2019-05-23T18:50:01.753Z,100066.62
2019-05-23T18:52:29.116Z,100068.16
2019-05-23T18:54:56.566Z,100068.47
2019-05-23T18:57:24.172Z,100068.64
2019-05-23T18:59:51.521Z,100067.30
2019-05-23T19:02:20.024Z,100069.95
2019-05-23T19:04:47.863Z,100067.28
2019-05-23T19:07:15.773Z,100063.58
2019-05-23T19:09:43.224Z,100067.48
2019-05-23T19:12:11.159Z,100067.94
2019-05-23T19:14:38.454Z,100068.51
2019-05-23T19:17:06.532Z,100064.86
2019-05-23T19:19:34.850Z,100066.59
2019-05-23T19:22:03.299Z,100067.23
2019-05-23T19:24:31.399Z,100063.20
2019-05-23T19:26:59.698Z,100070.36
2019-05-23T19:29:27.159Z,100071.28
2019-05-23T19:31:54.632Z,100055.30
2019-05-23T19:34:31.397Z,100072.60
2019-05-23T19:36:58.826Z,100076.69
2019-05-23T19:39:26.378Z,100077.16
2019-05-23T19:41:53.845Z,100078.10
2019-05-23T19:44:21.112Z,100077.94
2019-05-23T19:46:48.503Z,100075.25
2019-05-23T19:49:16.280Z,100077.33
2019-05-23T19:51:43.729Z,100072.28
